This is the latest recevied weather packets stored in our database for station/object KD8LPB. If no packets are shown the sender has not sent any weather packets the latest 10 day(s).
| Time | Temp. | Humidity | Pressure | Rain* | Wind** | Luminosity | Snow |
|---|---|---|---|---|---|---|---|
| 1777358740 | 6.11° C | 90% | 998.2 hPa | 0 mm | - | - | - |
| 1777354240 | 6.67° C | 89% | 999 hPa | 0 mm | - | - | - |
| 1777352438 | 6.67° C | 87% | 999.8 hPa | 0 mm | - | - | - |
| 1777348843 | 7.78° C | 85% | 1000.6 hPa | 0 mm | - | - | - |
| 1777347038 | 8.33° C | 85% | 1001.1 hPa | 0.25 mm | - | - | - |
| 1777345236 | 7.78° C | 86% | 1001.9 hPa | 0.25 mm | - | - | - |
| 1777344335 | 7.78° C | 86% | 1002.3 hPa | 0 mm | - | - | - |
| 1777342539 | 7.78° C | 88% | 1003.2 hPa | 1.02 mm | - | - | - |
| 1777339839 | 6.67° C | 91% | 1004.5 hPa | 1.78 mm | - | - | - |
| 1777338038 | 6.67° C | 87% | 1005.6 hPa | 0.51 mm | - | - | - |
| 1777332637 | 8.33° C | 75% | 1005.9 hPa | 0 mm | - | - | - |
| 1777328135 | 8.89° C | 73% | 1005.7 hPa | 0 mm | - | - | - |
| 1777324543 | 10.56° C | 69% | 1008 hPa | 0 mm | - | - | - |
| 1777320036 | 11.11° C | 68% | 1010.5 hPa | 0 mm | - | - | - |
| 1777317351 | 13.33° C | 55% | 1011.7 hPa | 0 mm | - | - | - |
| 1777313749 | 14.44° C | 53% | 1012.7 hPa | 0 mm | - | - | - |
| 1777309241 | 10° C | 69% | 1014.6 hPa | 0 mm | - | - | - |
| 1777304740 | 11.11° C | 63% | 1015.3 hPa | 0 mm | - | - | - |
| 1777294841 | 6.67° C | 75% | 1018.6 hPa | 0 mm | - | - | - |
| 1777291237 | 4.44° C | 82% | 1018.3 hPa | 0 mm | - | - | - |
| 1777287647 | 2.78° C | 88% | 1019 hPa | 0 mm | - | - | - |
| 1777284946 | 2.22° C | 90% | 1019.1 hPa | 0 mm | - | - | - |
| 1777274138 | 4.44° C | 80% | 1018.9 hPa | 0 mm | - | - | - |
| 1777270538 | 5.56° C | 75% | 1019.4 hPa | 0 mm | - | - | - |
| 1777269644 | 5° C | 78% | 1019.3 hPa | 0 mm | - | - | - |
* Rain latest hour (hover to see other rain measurements)
** Current wind speed in m/s (hover to see current wind gust speed)